^^
Station Historical Data
Daily Summary for March 15, 2017 Units:  Both    English   Metric
« Previous Day
Next Day »
Daily Weekly Monthly Yearly Custom
  High: Low: Average:
Temperature: TemperatureF °F /  -17.8 °C 55.8 °F /  13.2 °C 70.7 °F /  21.5 °C
Dew Point: DewpointF °F /  -17.8 °C 36.1 °F /  2.3 °C 49.3 °F /  9.6 °C
Humidity: Humidity% 32% 48%
Wind Speed: WindSpeedMPHmph /  0km/h - 1.3mph /  2.1km/h
Wind Gust: WindSpeedGustMPHmph /  0km/h - -
Wind- - SSW
Pressure: PressureIn in /  0 hPa 29.75 in /  1007.3 hPa -
Precipitation: 0.00 in /  0 mm    
Historical Graphs
 
 
Tabular Data for March 15, 2017
Time Temperature Dew Point Pressure Wind Wind Speed Wind Gust Humidity Rainfall Rate (Hourly) solar Conditions
TemperatureF °F /  -17.8 °C DewpointF °F /  -17.8 °C PressureInin /  0hPa Calm     Humidity% HourlyPrecipInin /  0mm SolarRadiationWatts/m^2 W/m2 Conditions
00:00 55.8 °F /  13.2 °C 53.2 °F /  11.8 °C 29.86in /  1011.1hPa Calm     91% 0.00in /  0mm 0.0 W/m2
00:06 55.9 °F /  13.3 °C 53.4 °F /  11.9 °C 29.86in /  1011.1hPa Calm     91% 0.00in /  0mm 0.0 W/m2
00:12 55.9 °F /  13.3 °C 53.1 °F /  11.7 °C 29.87in /  1011.4hPa Calm     90% 0.00in /  0mm 0.0 W/m2
00:18 56.1 °F /  13.4 °C 53.2 °F /  11.8 °C 29.87in /  1011.4hPa Calm   1.0mph /  1.6km/h 90% 0.00in /  0mm 0.0 W/m2
00:24 56.5 °F /  13.6 °C 53.2 °F /  11.8 °C 29.87in /  1011.4hPa Calm     89% 0.00in /  0mm 0.0 W/m2
00:30 56.7 °F /  13.7 °C 52.9 °F /  11.6 °C 29.87in /  1011.4hPa Calm   5.0mph /  8km/h 87% 0.00in /  0mm 0.0 W/m2
00:36 57.0 °F /  13.9 °C 52.9 °F /  11.6 °C 29.88in /  1011.7hPa Calm     86% 0.00in /  0mm 0.0 W/m2
00:42 57.2 °F /  14 °C 53.1 °F /  11.7 °C 29.88in /  1011.7hPa Calm     86% 0.00in /  0mm 0.0 W/m2
00:48 57.2 °F /  14 °C 52.3 °F /  11.3 °C 29.88in /  1011.7hPa Calm   2.0mph /  3.2km/h 84% 0.00in /  0mm 0.0 W/m2
00:56 57.2 °F /  14 °C 51.4 °F /  10.8 °C 29.88in /  1011.7hPa Calm     81% 0.00in /  0mm 0.0 W/m2
01:02 57.2 °F /  14 °C 51.1 °F /  10.6 °C 29.89in /  1012.1hPa Calm     80% 0.00in /  0mm 5.0 W/m2
01:08 57.2 °F /  14 °C 51.1 °F /  10.6 °C 29.88in /  1011.7hPa Calm   1.0mph /  1.6km/h 80% 0.00in /  0mm 9.0 W/m2
01:14 57.2 °F /  14 °C 50.4 °F /  10.2 °C 29.89in /  1012.1hPa Calm     78% 0.00in /  0mm 11.0 W/m2
01:20 57.2 °F /  14 °C 49.6 °F /  9.8 °C 29.89in /  1012.1hPa Calm   1.0mph /  1.6km/h 76% 0.00in /  0mm 12.0 W/m2
01:26 57.4 °F /  14.1 °C 49.5 °F /  9.7 °C 29.89in /  1012.1hPa Calm     75% 0.00in /  0mm 14.0 W/m2
01:32 57.4 °F /  14.1 °C 47.7 °F /  8.7 °C 29.89in /  1012.1hPa Calm   3.0mph /  4.8km/h 70% 0.00in /  0mm 18.0 W/m2
01:38 57.6 °F /  14.2 °C 46.8 °F /  8.2 °C 29.90in /  1012.4hPa South 0.9mph /  1.4km/h 2.0mph /  3.2km/h 67% 0.00in /  0mm 25.0 W/m2
01:44 58.3 °F /  14.6 °C 45.3 °F /  7.4 °C 29.90in /  1012.4hPa SSW 4.0mph /  6.4km/h 7.0mph /  11.3km/h 62% 0.00in /  0mm 25.0 W/m2
01:50 59.4 °F /  15.2 °C 44.6 °F /  7 °C 29.90in /  1012.4hPa SW 6.0mph /  9.7km/h 6.0mph /  9.7km/h 58% 0.00in /  0mm 33.0 W/m2
01:56 60.3 °F /  15.7 °C 44.1 °F /  6.7 °C 29.90in /  1012.4hPa SSE 2.9mph /  4.7km/h 7.0mph /  11.3km/h 55% 0.00in /  0mm 39.0 W/m2
02:02 61.2 °F /  16.2 °C 44.8 °F /  7.1 °C 29.90in /  1012.4hPa South 4.0mph /  6.4km/h 6.0mph /  9.7km/h 55% 0.00in /  0mm 35.0 W/m2
02:09 62.1 °F /  16.7 °C 44.2 °F /  6.8 °C 29.90in /  1012.4hPa SE 2.9mph /  4.7km/h 6.0mph /  9.7km/h 52% 0.00in /  0mm 44.0 W/m2
02:15 62.8 °F /  17.1 °C 42.8 °F /  6 °C 29.90in /  1012.4hPa SE 6.9mph /  11.1km/h 11.0mph /  17.7km/h 48% 0.00in /  0mm 54.0 W/m2
02:21 63.3 °F /  17.4 °C 43.9 °F /  6.6 °C 29.91in /  1012.8hPa SSE 6.0mph /  9.7km/h 7.0mph /  11.3km/h 49% 0.00in /  0mm 77.0 W/m2
02:27 63.9 °F /  17.7 °C 43.2 °F /  6.2 °C 29.91in /  1012.8hPa SSE 4.0mph /  6.4km/h 11.0mph /  17.7km/h 47% 0.00in /  0mm 77.0 W/m2
02:35 64.4 °F /  18 °C 43.7 °F /  6.5 °C 29.91in /  1012.8hPa SSE 4.9mph /  7.9km/h 9.0mph /  14.5km/h 47% 0.00in /  0mm 69.0 W/m2
02:41 64.6 °F /  18.1 °C 43.3 °F /  6.3 °C 29.91in /  1012.8hPa SSW 2.9mph /  4.7km/h 6.0mph /  9.7km/h 46% 0.00in /  0mm 72.0 W/m2
02:47 64.9 °F /  18.3 °C 43.7 °F /  6.5 °C 29.91in /  1012.8hPa SSE 2.0mph /  3.2km/h 7.0mph /  11.3km/h 46% 0.00in /  0mm 58.0 W/m2
02:53 65.1 °F /  18.4 °C 43.9 °F /  6.6 °C 29.92in /  1013.1hPa SSE 0.9mph /  1.4km/h 7.0mph /  11.3km/h 46% 0.00in /  0mm 56.0 W/m2
02:59 65.7 °F /  18.7 °C 43.7 °F /  6.5 °C 29.91in /  1012.8hPa SSE 4.0mph /  6.4km/h 7.0mph /  11.3km/h 45% 0.00in /  0mm 47.0 W/m2
03:05 66.0 °F /  18.9 °C 44.1 °F /  6.7 °C 29.92in /  1013.1hPa South 10.1mph /  16.3km/h 11.0mph /  17.7km/h 45% 0.00in /  0mm 67.0 W/m2
03:11 66.6 °F /  19.2 °C 44.6 °F /  7 °C 29.92in /  1013.1hPa SE 0.9mph /  1.4km/h 7.0mph /  11.3km/h 45% 0.00in /  0mm 104.0 W/m2
03:17 67.3 °F /  19.6 °C 45.9 °F /  7.7 °C 29.92in /  1013.1hPa South 8.9mph /  14.3km/h 9.0mph /  14.5km/h 46% 0.00in /  0mm 144.0 W/m2
03:23 68.2 °F /  20.1 °C 46.0 °F /  7.8 °C 29.92in /  1013.1hPa SSW 4.0mph /  6.4km/h 7.0mph /  11.3km/h 45% 0.00in /  0mm 207.0 W/m2
03:30 68.4 °F /  20.2 °C 45.0 °F /  7.2 °C 29.92in /  1013.1hPa East 2.9mph /  4.7km/h 13.0mph /  20.9km/h 43% 0.00in /  0mm 241.0 W/m2
03:36 68.5 °F /  20.3 °C 45.1 °F /  7.3 °C 29.92in /  1013.1hPa SSE 4.0mph /  6.4km/h 12.0mph /  19.3km/h 43% 0.00in /  0mm 262.0 W/m2
03:42 68.5 °F /  20.3 °C 45.7 °F /  7.6 °C 29.92in /  1013.1hPa SE 6.0mph /  9.7km/h 14.0mph /  22.5km/h 44% 0.00in /  0mm 281.0 W/m2
03:48 68.9 °F /  20.5 °C 46.0 °F /  7.8 °C 29.92in /  1013.1hPa SSE 2.0mph /  3.2km/h 11.0mph /  17.7km/h 44% 0.00in /  0mm 274.0 W/m2
03:54 69.1 °F /  20.6 °C 46.2 °F /  7.9 °C 29.92in /  1013.1hPa SSE 6.0mph /  9.7km/h 7.0mph /  11.3km/h 44% 0.00in /  0mm 294.0 W/m2
04:01 69.1 °F /  20.6 °C 46.2 °F /  7.9 °C 29.92in /  1013.1hPa SW 0.9mph /  1.4km/h 8.0mph /  12.9km/h 44% 0.00in /  0mm 339.0 W/m2
04:06 69.6 °F /  20.9 °C 46.2 °F /  7.9 °C 29.92in /  1013.1hPa South 4.0mph /  6.4km/h 8.0mph /  12.9km/h 43% 0.00in /  0mm 782.0 W/m2
04:13 70.3 °F /  21.3 °C 48.0 °F /  8.9 °C 29.91in /  1012.8hPa SSE 8.1mph /  13km/h 9.0mph /  14.5km/h 45% 0.00in /  0mm 779.0 W/m2
04:19 71.1 °F /  21.7 °C 46.8 °F /  8.2 °C 29.92in /  1013.1hPa SSW 0.9mph /  1.4km/h 10.0mph /  16.1km/h 42% 0.00in /  0mm 786.0 W/m2
04:25 71.8 °F /  22.1 °C 47.5 °F /  8.6 °C 29.92in /  1013.1hPa Calm   8.0mph /  12.9km/h 42% 0.00in /  0mm 823.0 W/m2
04:33 72.7 °F /  22.6 °C 46.9 °F /  8.3 °C 29.92in /  1013.1hPa SSE 2.9mph /  4.7km/h 8.0mph /  12.9km/h 40% 0.00in /  0mm 888.0 W/m2
04:39 73.0 °F /  22.8 °C 48.0 °F /  8.9 °C 29.92in /  1013.1hPa Calm   9.0mph /  14.5km/h 41% 0.00in /  0mm 1014.0 W/m2
04:45 73.4 °F /  23 °C 48.2 °F /  9 °C 29.91in /  1012.8hPa South 4.9mph /  7.9km/h 9.0mph /  14.5km/h 41% 0.00in /  0mm 554.0 W/m2
04:51 73.4 °F /  23 °C 48.9 °F /  9.4 °C 29.91in /  1012.8hPa SW 2.0mph /  3.2km/h 8.0mph /  12.9km/h 42% 0.00in /  0mm 445.0 W/m2
04:58 73.6 °F /  23.1 °C 49.6 °F /  9.8 °C 29.91in /  1012.8hPa SSW 2.0mph /  3.2km/h 8.0mph /  12.9km/h 43% 0.00in /  0mm 867.0 W/m2
05:04 73.9 °F /  23.3 °C 49.5 °F /  9.7 °C 29.91in /  1012.8hPa SW 2.0mph /  3.2km/h 5.0mph /  8km/h 42% 0.00in /  0mm 875.0 W/m2
05:10 74.1 °F /  23.4 °C 50.2 °F /  10.1 °C 29.91in /  1012.8hPa SSW 2.0mph /  3.2km/h 6.0mph /  9.7km/h 43% 0.00in /  0mm 874.0 W/m2
05:16 74.7 °F /  23.7 °C 50.0 °F /  10 °C 29.91in /  1012.8hPa South 0.9mph /  1.4km/h 6.0mph /  9.7km/h 42% 0.00in /  0mm 884.0 W/m2
05:22 75.2 °F /  24 °C 50.5 °F /  10.3 °C 29.91in /  1012.8hPa WSW 2.9mph /  4.7km/h 5.0mph /  8km/h 42% 0.00in /  0mm 896.0 W/m2
05:28 75.7 °F /  24.3 °C 51.1 °F /  10.6 °C 29.91in /  1012.8hPa SSW 6.0mph /  9.7km/h 7.0mph /  11.3km/h 42% 0.00in /  0mm 937.0 W/m2
05:34 76.1 °F /  24.5 °C 50.7 °F /  10.4 °C 29.90in /  1012.4hPa ESE 0.9mph /  1.4km/h 12.0mph /  19.3km/h 41% 0.00in /  0mm 919.0 W/m2
05:40 75.9 °F /  24.4 °C 49.8 °F /  9.9 °C 29.90in /  1012.4hPa South 2.9mph /  4.7km/h 8.0mph /  12.9km/h 40% 0.00in /  0mm 925.0 W/m2
05:46 76.1 °F /  24.5 °C 51.3 °F /  10.7 °C 29.90in /  1012.4hPa SSW 4.0mph /  6.4km/h 8.0mph /  12.9km/h 42% 0.00in /  0mm 930.0 W/m2
05:52 76.3 °F /  24.6 °C 50.9 °F /  10.5 °C 29.90in /  1012.4hPa SW 4.0mph /  6.4km/h 7.0mph /  11.3km/h 41% 0.00in /  0mm 946.0 W/m2
05:59 76.5 °F /  24.7 °C 51.1 °F /  10.6 °C 29.89in /  1012.1hPa SW 4.9mph /  7.9km/h 7.0mph /  11.3km/h 41% 0.00in /  0mm 969.0 W/m2
06:05 76.6 °F /  24.8 °C 51.3 °F /  10.7 °C 29.89in /  1012.1hPa SSE 0.9mph /  1.4km/h 7.0mph /  11.3km/h 41% 0.00in /  0mm 1007.0 W/m2
06:11 76.8 °F /  24.9 °C 52.0 °F /  11.1 °C 29.88in /  1011.7hPa Calm   2.0mph /  3.2km/h 42% 0.00in /  0mm 963.0 W/m2
06:17 77.2 °F /  25.1 °C 51.1 °F /  10.6 °C 29.88in /  1011.7hPa WSW 2.0mph /  3.2km/h 5.0mph /  8km/h 40% 0.00in /  0mm 967.0 W/m2
06:23 77.2 °F /  25.1 °C 52.3 °F /  11.3 °C 29.88in /  1011.7hPa ESE 0.9mph /  1.4km/h 5.0mph /  8km/h 42% 0.00in /  0mm 967.0 W/m2
06:29 77.7 °F /  25.4 °C 51.4 °F /  10.8 °C 29.87in /  1011.4hPa WSW 2.0mph /  3.2km/h 7.0mph /  11.3km/h 40% 0.00in /  0mm 974.0 W/m2
06:35 77.7 °F /  25.4 °C 52.2 °F /  11.2 °C 29.87in /  1011.4hPa South 2.9mph /  4.7km/h 6.0mph /  9.7km/h 41% 0.00in /  0mm 963.0 W/m2
06:41 77.5 °F /  25.3 °C 51.3 °F /  10.7 °C 29.87in /  1011.4hPa WSW 4.0mph /  6.4km/h 6.0mph /  9.7km/h 40% 0.00in /  0mm 970.0 W/m2
06:47 77.9 °F /  25.5 °C 51.6 °F /  10.9 °C 29.86in /  1011.1hPa WNW 2.0mph /  3.2km/h 5.0mph /  8km/h 40% 0.00in /  0mm 970.0 W/m2
06:53 78.4 °F /  25.8 °C 52.2 °F /  11.2 °C 29.86in /  1011.1hPa WSW 2.9mph /  4.7km/h 3.0mph /  4.8km/h 40% 0.00in /  0mm 965.0 W/m2
06:59 78.6 °F /  25.9 °C 52.3 °F /  11.3 °C 29.86in /  1011.1hPa WNW 0.9mph /  1.4km/h 4.0mph /  6.4km/h 40% 0.00in /  0mm 974.0 W/m2
07:06 79.2 °F /  26.2 °C 52.7 °F /  11.5 °C 29.86in /  1011.1hPa WSW 4.0mph /  6.4km/h 5.0mph /  8km/h 40% 0.00in /  0mm 981.0 W/m2
07:12 79.7 °F /  26.5 °C 51.1 °F /  10.6 °C 29.85in /  1010.7hPa WSW 2.0mph /  3.2km/h 9.0mph /  14.5km/h 37% 0.00in /  0mm 979.0 W/m2
07:18 79.7 °F /  26.5 °C 51.8 °F /  11 °C 29.85in /  1010.7hPa SW 6.0mph /  9.7km/h 8.0mph /  12.9km/h 38% 0.00in /  0mm 977.0 W/m2
07:24 79.3 °F /  26.3 °C 51.4 °F /  10.8 °C 29.85in /  1010.7hPa Calm   5.0mph /  8km/h 38% 0.00in /  0mm 974.0 W/m2
07:30 79.5 °F /  26.4 °C 52.3 °F /  11.3 °C 29.85in /  1010.7hPa Calm   3.0mph /  4.8km/h 39% 0.00in /  0mm 976.0 W/m2
07:36 80.2 °F /  26.8 °C 52.3 °F /  11.3 °C 29.85in /  1010.7hPa West 0.9mph /  1.4km/h 6.0mph /  9.7km/h 38% 0.00in /  0mm 965.0 W/m2
07:42 80.8 °F /  27.1 °C 52.2 °F /  11.2 °C 29.84in /  1010.4hPa SSW 2.0mph /  3.2km/h 5.0mph /  8km/h 37% 0.00in /  0mm 963.0 W/m2
07:48 80.8 °F /  27.1 °C 52.9 °F /  11.6 °C 29.84in /  1010.4hPa West 6.0mph /  9.7km/h 7.0mph /  11.3km/h 38% 0.00in /  0mm 960.0 W/m2
07:54 80.8 °F /  27.1 °C 52.2 °F /  11.2 °C 29.84in /  1010.4hPa WNW 4.9mph /  7.9km/h 6.0mph /  9.7km/h 37% 0.00in /  0mm 954.0 W/m2
08:01 80.8 °F /  27.1 °C 52.2 °F /  11.2 °C 29.84in /  1010.4hPa West 2.9mph /  4.7km/h 8.0mph /  12.9km/h 37% 0.00in /  0mm 965.0 W/m2
08:07 80.8 °F /  27.1 °C 52.2 °F /  11.2 °C 29.83in /  1010hPa SSW 0.9mph /  1.4km/h 3.0mph /  4.8km/h 37% 0.00in /  0mm 192.0 W/m2
08:13 80.8 °F /  27.1 °C 51.3 °F /  10.7 °C 29.83in /  1010hPa WSW 4.9mph /  7.9km/h 7.0mph /  11.3km/h 36% 0.00in /  0mm 1004.0 W/m2
08:19 80.4 °F /  26.9 °C 51.8 °F /  11 °C 29.83in /  1010hPa SE 2.9mph /  4.7km/h 6.0mph /  9.7km/h 37% 0.00in /  0mm 993.0 W/m2
08:25 80.8 °F /  27.1 °C 52.2 °F /  11.2 °C 29.83in /  1010hPa SSE 0.9mph /  1.4km/h 4.0mph /  6.4km/h 37% 0.00in /  0mm 972.0 W/m2
08:31 81.7 °F /  27.6 °C 51.4 °F /  10.8 °C 29.82in /  1009.7hPa SE 0.9mph /  1.4km/h 4.0mph /  6.4km/h 35% 0.00in /  0mm 954.0 W/m2
08:37 82.0 °F /  27.8 °C 51.6 °F /  10.9 °C 29.82in /  1009.7hPa SW 0.9mph /  1.4km/h 3.0mph /  4.8km/h 35% 0.00in /  0mm 942.0 W/m2
08:43 82.6 °F /  28.1 °C 52.2 °F /  11.2 °C 29.82in /  1009.7hPa West 0.9mph /  1.4km/h 3.0mph /  4.8km/h 35% 0.00in /  0mm 930.0 W/m2
08:49 82.8 °F /  28.2 °C 50.7 °F /  10.4 °C 29.82in /  1009.7hPa West 0.9mph /  1.4km/h 8.0mph /  12.9km/h 33% 0.00in /  0mm 962.0 W/m2
08:55 82.6 °F /  28.1 °C 52.2 °F /  11.2 °C 29.81in /  1009.4hPa West 2.0mph /  3.2km/h 2.0mph /  3.2km/h 35% 0.00in /  0mm 248.0 W/m2
09:01 82.8 °F /  28.2 °C 50.7 °F /  10.4 °C 29.81in /  1009.4hPa NE 0.9mph /  1.4km/h 3.0mph /  4.8km/h 33% 0.00in /  0mm 886.0 W/m2
09:07 83.3 °F /  28.5 °C 52.0 °F /  11.1 °C 29.80in /  1009hPa NW 0.9mph /  1.4km/h 3.0mph /  4.8km/h 34% 0.00in /  0mm 874.0 W/m2
09:13 83.7 °F /  28.7 °C 50.7 °F /  10.4 °C 29.80in /  1009hPa SE 0.9mph /  1.4km/h 4.0mph /  6.4km/h 32% 0.00in /  0mm 900.0 W/m2
09:20 83.5 °F /  28.6 °C 51.4 °F /  10.8 °C 29.80in /  1009hPa SW 0.9mph /  1.4km/h 5.0mph /  8km/h 33% 0.00in /  0mm 253.0 W/m2
09:26 83.5 °F /  28.6 °C 52.9 °F /  11.6 °C 29.80in /  1009hPa NNW 2.0mph /  3.2km/h 6.0mph /  9.7km/h 35% 0.00in /  0mm 863.0 W/m2
09:32 83.7 °F /  28.7 °C 51.4 °F /  10.8 °C 29.79in /  1008.7hPa West 2.0mph /  3.2km/h 6.0mph /  9.7km/h 33% 0.00in /  0mm 817.0 W/m2
09:38 83.7 °F /  28.7 °C 51.4 °F /  10.8 °C 29.79in /  1008.7hPa West 0.9mph /  1.4km/h 6.0mph /  9.7km/h 33% 0.00in /  0mm 768.0 W/m2
09:44 83.7 °F /  28.7 °C 52.3 °F /  11.3 °C 29.78in /  1008.4hPa West 0.9mph /  1.4km/h 6.0mph /  9.7km/h 34% 0.00in /  0mm 740.0 W/m2
09:50 84.0 °F /  28.9 °C 51.8 °F /  11 °C 29.78in /  1008.4hPa WSW 4.9mph /  7.9km/h 8.0mph /  12.9km/h 33% 0.00in /  0mm 715.0 W/m2
09:56 84.0 °F /  28.9 °C 50.9 °F /  10.5 °C 29.78in /  1008.4hPa Calm   2.0mph /  3.2km/h 32% 0.00in /  0mm 700.0 W/m2
10:02 83.8 °F /  28.8 °C 50.9 °F /  10.5 °C 29.78in /  1008.4hPa WNW 2.9mph /  4.7km/h 7.0mph /  11.3km/h 32% 0.00in /  0mm 677.0 W/m2
10:08 83.3 °F /  28.5 °C 51.3 °F /  10.7 °C 29.78in /  1008.4hPa WSW 4.9mph /  7.9km/h 6.0mph /  9.7km/h 33% 0.00in /  0mm 656.0 W/m2
10:16 83.1 °F /  28.4 °C 51.8 °F /  11 °C 29.78in /  1008.4hPa Calm   3.0mph /  4.8km/h 34% 0.00in /  0mm 638.0 W/m2
10:21 83.3 °F /  28.5 °C 52.0 °F /  11.1 °C 29.77in /  1008hPa West 0.9mph /  1.4km/h 5.0mph /  8km/h 34% 0.00in /  0mm 615.0 W/m2
10:27 83.7 °F /  28.7 °C 52.3 °F /  11.3 °C 29.77in /  1008hPa WSW 2.0mph /  3.2km/h 3.0mph /  4.8km/h 34% 0.00in /  0mm 596.0 W/m2
10:33 83.8 °F /  28.8 °C 51.6 °F /  10.9 °C 29.77in /  1008hPa Calm   2.0mph /  3.2km/h 33% 0.00in /  0mm 580.0 W/m2
10:41 84.0 °F /  28.9 °C 52.7 °F /  11.5 °C 29.77in /  1008hPa WNW 0.9mph /  1.4km/h 4.0mph /  6.4km/h 34% 0.00in /  0mm 543.0 W/m2
10:47 84.4 °F /  29.1 °C 52.9 °F /  11.6 °C 29.76in /  1007.7hPa Calm   3.0mph /  4.8km/h 34% 0.00in /  0mm 527.0 W/m2
10:55 84.0 °F /  28.9 °C 52.7 °F /  11.5 °C 29.76in /  1007.7hPa Calm   5.0mph /  8km/h 34% 0.00in /  0mm 512.0 W/m2
11:02 83.7 °F /  28.7 °C 52.3 °F /  11.3 °C 29.76in /  1007.7hPa Calm   2.0mph /  3.2km/h 34% 0.00in /  0mm 494.0 W/m2
11:08 83.8 °F /  28.8 °C 52.5 °F /  11.4 °C 29.76in /  1007.7hPa SSW 0.9mph /  1.4km/h 7.0mph /  11.3km/h 34% 0.00in /  0mm 471.0 W/m2
11:14 83.5 °F /  28.6 °C 52.2 °F /  11.2 °C 29.75in /  1007.3hPa NW 2.0mph /  3.2km/h 5.0mph /  8km/h 34% 0.00in /  0mm 454.0 W/m2
11:20 83.5 °F /  28.6 °C 52.9 °F /  11.6 °C 29.75in /  1007.3hPa NNW 2.0mph /  3.2km/h 4.0mph /  6.4km/h 35% 0.00in /  0mm 415.0 W/m2
11:26 83.8 °F /  28.8 °C 53.2 °F /  11.8 °C 29.75in /  1007.3hPa Calm   5.0mph /  8km/h 35% 0.00in /  0mm 364.0 W/m2
11:32 83.8 °F /  28.8 °C 53.2 °F /  11.8 °C 29.75in /  1007.3hPa WSW 0.9mph /  1.4km/h 2.0mph /  3.2km/h 35% 0.00in /  0mm 336.0 W/m2
11:38 83.5 °F /  28.6 °C 53.8 °F /  12.1 °C 29.75in /  1007.3hPa WNW 2.0mph /  3.2km/h 6.0mph /  9.7km/h 36% 0.00in /  0mm 318.0 W/m2
11:45 82.9 °F /  28.3 °C 54.0 °F /  12.2 °C 29.75in /  1007.3hPa WSW 0.9mph /  1.4km/h 3.0mph /  4.8km/h 37% 0.00in /  0mm 253.0 W/m2
11:51 82.2 °F /  27.9 °C 53.4 °F /  11.9 °C 29.75in /  1007.3hPa Calm   8.0mph /  12.9km/h 37% 0.00in /  0mm 162.0 W/m2
11:57 81.3 °F /  27.4 °C 54.0 °F /  12.2 °C 29.75in /  1007.3hPa Calm   2.0mph /  3.2km/h 39% 0.00in /  0mm 44.0 W/m2
12:03 80.4 °F /  26.9 °C 54.0 °F /  12.2 °C 29.75in /  1007.3hPa Calm   2.0mph /  3.2km/h 40% 0.00in /  0mm 42.0 W/m2
12:09 79.7 °F /  26.5 °C 54.0 °F /  12.2 °C 29.75in /  1007.3hPa Calm   2.0mph /  3.2km/h 41% 0.00in /  0mm 40.0 W/m2
12:15 79.2 °F /  26.2 °C 54.1 °F /  12.3 °C 29.75in /  1007.3hPa Calm   1.0mph /  1.6km/h 42% 0.00in /  0mm 33.0 W/m2
12:21 78.6 °F /  25.9 °C 53.6 °F /  12 °C 29.75in /  1007.3hPa Calm     42% 0.00in /  0mm 32.0 W/m2
12:28 78.3 °F /  25.7 °C 54.0 °F /  12.2 °C 29.75in /  1007.3hPa WNW 0.9mph /  1.4km/h 1.0mph /  1.6km/h 43% 0.00in /  0mm 28.0 W/m2
12:34 77.9 °F /  25.5 °C 54.3 °F /  12.4 °C 29.75in /  1007.3hPa Calm     44% 0.00in /  0mm 25.0 W/m2
12:40 77.5 °F /  25.3 °C 54.0 °F /  12.2 °C 29.75in /  1007.3hPa WSW 0.9mph /  1.4km/h 1.0mph /  1.6km/h 44% 0.00in /  0mm 23.0 W/m2
12:46 77.4 °F /  25.2 °C 54.3 °F /  12.4 °C 29.75in /  1007.3hPa Calm     45% 0.00in /  0mm 14.0 W/m2
12:52 77.2 °F /  25.1 °C 54.9 °F /  12.7 °C 29.75in /  1007.3hPa Calm     46% 0.00in /  0mm 11.0 W/m2
12:59 76.8 °F /  24.9 °C 54.5 °F /  12.5 °C 29.76in /  1007.7hPa Calm     46% 0.00in /  0mm 7.0 W/m2
13:04 76.6 °F /  24.8 °C 54.9 °F /  12.7 °C 29.76in /  1007.7hPa WSW 2.0mph /  3.2km/h 3.0mph /  4.8km/h 47% 0.00in /  0mm 0.0 W/m2
13:11 76.3 °F /  24.6 °C 55.2 °F /  12.9 °C 29.76in /  1007.7hPa Calm   1.0mph /  1.6km/h 48% 0.00in /  0mm 0.0 W/m2
13:17 75.9 °F /  24.4 °C 54.9 °F /  12.7 °C 29.76in /  1007.7hPa Calm     48% 0.00in /  0mm 0.0 W/m2
13:23 75.7 °F /  24.3 °C 54.1 °F /  12.3 °C 29.76in /  1007.7hPa Calm     47% 0.00in /  0mm 0.0 W/m2
13:29 75.7 °F /  24.3 °C 54.7 °F /  12.6 °C 29.76in /  1007.7hPa Calm     48% 0.00in /  0mm 0.0 W/m2
13:35 75.6 °F /  24.2 °C 54.5 °F /  12.5 °C 29.76in /  1007.7hPa Calm     48% 0.00in /  0mm 0.0 W/m2
13:41 75.4 °F /  24.1 °C 54.9 °F /  12.7 °C 29.76in /  1007.7hPa Calm     49% 0.00in /  0mm 0.0 W/m2
13:47 75.4 °F /  24.1 °C 54.9 °F /  12.7 °C 29.76in /  1007.7hPa Calm   2.0mph /  3.2km/h 49% 0.00in /  0mm 0.0 W/m2
13:54 75.0 °F /  23.9 °C 57.7 °F /  14.3 °C 29.76in /  1007.7hPa Calm   1.0mph /  1.6km/h 55% 0.00in /  0mm 0.0 W/m2
14:00 74.7 °F /  23.7 °C 56.8 °F /  13.8 °C 29.77in /  1008hPa Calm   1.0mph /  1.6km/h 54% 0.00in /  0mm 0.0 W/m2
14:06 74.3 °F /  23.5 °C 55.6 °F /  13.1 °C 29.76in /  1007.7hPa Calm   1.0mph /  1.6km/h 52% 0.00in /  0mm 0.0 W/m2
14:12 74.1 °F /  23.4 °C 54.9 °F /  12.7 °C 29.76in /  1007.7hPa Calm   1.0mph /  1.6km/h 51% 0.00in /  0mm 0.0 W/m2
14:18 73.9 °F /  23.3 °C 54.1 °F /  12.3 °C 29.76in /  1007.7hPa West 2.0mph /  3.2km/h 3.0mph /  4.8km/h 50% 0.00in /  0mm 0.0 W/m2
14:24 73.9 °F /  23.3 °C 55.2 °F /  12.9 °C 29.77in /  1008hPa Calm   2.0mph /  3.2km/h 52% 0.00in /  0mm 0.0 W/m2
14:30 73.8 °F /  23.2 °C 56.1 °F /  13.4 °C 29.76in /  1007.7hPa Calm   1.0mph /  1.6km/h 54% 0.00in /  0mm 0.0 W/m2
14:37 73.8 °F /  23.2 °C 56.1 °F /  13.4 °C 29.77in /  1008hPa Calm     54% 0.00in /  0mm 0.0 W/m2
14:47 73.6 °F /  23.1 °C 55.9 °F /  13.3 °C 29.77in /  1008hPa Calm     54% 0.00in /  0mm 0.0 W/m2
14:53 73.2 °F /  22.9 °C 54.5 °F /  12.5 °C 29.77in /  1008hPa SE 2.0mph /  3.2km/h 2.0mph /  3.2km/h 52% 0.00in /  0mm 0.0 W/m2
15:00 73.2 °F /  22.9 °C 57.0 °F /  13.9 °C 29.77in /  1008hPa Calm   2.0mph /  3.2km/h 57% 0.00in /  0mm 0.0 W/m2
15:07 72.9 °F /  22.7 °C 56.3 °F /  13.5 °C 29.78in /  1008.4hPa South 0.9mph /  1.4km/h 3.0mph /  4.8km/h 56% 0.00in /  0mm 0.0 W/m2
15:13 72.7 °F /  22.6 °C 55.6 °F /  13.1 °C 29.78in /  1008.4hPa Calm   1.0mph /  1.6km/h 55% 0.00in /  0mm 0.0 W/m2
15:21 72.3 °F /  22.4 °C 55.8 °F /  13.2 °C 29.78in /  1008.4hPa Calm   1.0mph /  1.6km/h 56% 0.00in /  0mm 0.0 W/m2
15:27 72.1 °F /  22.3 °C 55.0 °F /  12.8 °C 29.78in /  1008.4hPa Calm   1.0mph /  1.6km/h 55% 0.00in /  0mm 0.0 W/m2
15:32 72.0 °F /  22.2 °C 55.4 °F /  13 °C 29.78in /  1008.4hPa Calm     56% 0.00in /  0mm 0.0 W/m2
15:38 71.6 °F /  22 °C 54.5 °F /  12.5 °C 29.78in /  1008.4hPa SSE 0.9mph /  1.4km/h 3.0mph /  4.8km/h 55% 0.00in /  0mm 0.0 W/m2
15:45 71.2 °F /  21.8 °C 54.7 °F /  12.6 °C 29.78in /  1008.4hPa SSE 0.9mph /  1.4km/h 2.0mph /  3.2km/h 56% 0.00in /  0mm 0.0 W/m2
15:50 71.1 °F /  21.7 °C 54.5 °F /  12.5 °C 29.78in /  1008.4hPa ESE 2.0mph /  3.2km/h 3.0mph /  4.8km/h 56% 0.00in /  0mm 0.0 W/m2
15:56 70.9 °F /  21.6 °C 54.3 °F /  12.4 °C 29.78in /  1008.4hPa SSE 0.9mph /  1.4km/h 3.0mph /  4.8km/h 56% 0.00in /  0mm 0.0 W/m2
16:05 70.7 °F /  21.5 °C 53.2 °F /  11.8 °C 29.78in /  1008.4hPa SE 0.9mph /  1.4km/h 5.0mph /  8km/h 54% 0.00in /  0mm 0.0 W/m2
16:11 70.5 °F /  21.4 °C 53.6 °F /  12 °C 29.78in /  1008.4hPa SSE 2.0mph /  3.2km/h 5.0mph /  8km/h 55% 0.00in /  0mm 0.0 W/m2
16:17 70.5 °F /  21.4 °C 54.5 °F /  12.5 °C 29.79in /  1008.7hPa SE 2.0mph /  3.2km/h 3.0mph /  4.8km/h 57% 0.00in /  0mm 0.0 W/m2
16:23 70.3 °F /  21.3 °C 54.3 °F /  12.4 °C 29.78in /  1008.4hPa Calm   1.0mph /  1.6km/h 57% 0.00in /  0mm 0.0 W/m2
16:29 70.3 °F /  21.3 °C 54.3 °F /  12.4 °C 29.78in /  1008.4hPa ESE 0.9mph /  1.4km/h 1.0mph /  1.6km/h 57% 0.00in /  0mm 0.0 W/m2
16:35 70.2 °F /  21.2 °C 54.7 °F /  12.6 °C 29.78in /  1008.4hPa West 0.9mph /  1.4km/h 3.0mph /  4.8km/h 58% 0.00in /  0mm 0.0 W/m2
16:41 70.0 °F /  21.1 °C 52.5 °F /  11.4 °C 29.78in /  1008.4hPa Calm     54% 0.00in /  0mm 0.0 W/m2
16:47 70.0 °F /  21.1 °C 53.1 °F /  11.7 °C 29.78in /  1008.4hPa Calm     55% 0.00in /  0mm 0.0 W/m2
16:53 69.8 °F /  21 °C 51.4 °F /  10.8 °C 29.78in /  1008.4hPa Calm     52% 0.00in /  0mm 0.0 W/m2
16:59 69.6 °F /  20.9 °C 51.3 °F /  10.7 °C 29.78in /  1008.4hPa Calm     52% 0.00in /  0mm 0.0 W/m2
17:05 69.6 °F /  20.9 °C 51.3 °F /  10.7 °C 29.78in /  1008.4hPa Calm   1.0mph /  1.6km/h 52% 0.00in /  0mm 0.0 W/m2
17:11 69.6 °F /  20.9 °C 51.3 °F /  10.7 °C 29.78in /  1008.4hPa Calm   1.0mph /  1.6km/h 52% 0.00in /  0mm 0.0 W/m2
17:17 69.4 °F /  20.8 °C 51.6 °F /  10.9 °C 29.78in /  1008.4hPa Calm   1.0mph /  1.6km/h 53% 0.00in /  0mm 0.0 W/m2
17:23 69.3 °F /  20.7 °C 52.0 °F /  11.1 °C 29.78in /  1008.4hPa Calm     54% 0.00in /  0mm 0.0 W/m2
17:30 68.9 °F /  20.5 °C 52.0 °F /  11.1 °C 29.78in /  1008.4hPa Calm     55% 0.00in /  0mm 0.0 W/m2
17:36 68.7 °F /  20.4 °C 52.0 °F /  11.1 °C 29.78in /  1008.4hPa WSW 2.9mph /  4.7km/h 3.0mph /  4.8km/h 55% 0.00in /  0mm 0.0 W/m2
17:42 68.4 °F /  20.2 °C 52.5 °F /  11.4 °C 29.78in /  1008.4hPa Calm   1.0mph /  1.6km/h 57% 0.00in /  0mm 0.0 W/m2
17:48 68.4 °F /  20.2 °C 51.6 °F /  10.9 °C 29.78in /  1008.4hPa SW 0.9mph /  1.4km/h 2.0mph /  3.2km/h 55% 0.00in /  0mm 0.0 W/m2
17:54 68.4 °F /  20.2 °C 51.1 °F /  10.6 °C 29.78in /  1008.4hPa Calm   3.0mph /  4.8km/h 54% 0.00in /  0mm 0.0 W/m2
18:00 68.4 °F /  20.2 °C 52.5 °F /  11.4 °C 29.78in /  1008.4hPa Calm   1.0mph /  1.6km/h 57% 0.00in /  0mm 0.0 W/m2
18:06 68.2 °F /  20.1 °C 51.8 °F /  11 °C 29.78in /  1008.4hPa Calm   1.0mph /  1.6km/h 56% 0.00in /  0mm 0.0 W/m2
18:13 67.8 °F /  19.9 °C 52.5 °F /  11.4 °C 29.78in /  1008.4hPa Calm     58% 0.00in /  0mm 0.0 W/m2
18:19 67.5 °F /  19.7 °C 52.7 °F /  11.5 °C 29.78in /  1008.4hPa Calm     59% 0.00in /  0mm 0.0 W/m2
18:25 66.9 °F /  19.4 °C 51.3 °F /  10.7 °C 29.78in /  1008.4hPa SE 2.9mph /  4.7km/h 3.0mph /  4.8km/h 57% 0.00in /  0mm 0.0 W/m2
18:31 66.7 °F /  19.3 °C 48.6 °F /  9.2 °C 29.78in /  1008.4hPa SE 2.9mph /  4.7km/h 4.0mph /  6.4km/h 52% 0.00in /  0mm 0.0 W/m2
18:37 66.6 °F /  19.2 °C 45.7 °F /  7.6 °C 29.78in /  1008.4hPa SE 0.9mph /  1.4km/h 3.0mph /  4.8km/h 47% 0.00in /  0mm 0.0 W/m2
18:43 66.4 °F /  19.1 °C 45.5 °F /  7.5 °C 29.78in /  1008.4hPa Calm   2.0mph /  3.2km/h 47% 0.00in /  0mm 0.0 W/m2
18:49 66.4 °F /  19.1 °C 45.5 °F /  7.5 °C 29.78in /  1008.4hPa Calm   2.0mph /  3.2km/h 47% 0.00in /  0mm 0.0 W/m2
18:55 66.0 °F /  18.9 °C 45.1 °F /  7.3 °C 29.78in /  1008.4hPa Calm   1.0mph /  1.6km/h 47% 0.00in /  0mm 0.0 W/m2
19:01 65.7 °F /  18.7 °C 45.5 °F /  7.5 °C 29.78in /  1008.4hPa Calm   1.0mph /  1.6km/h 48% 0.00in /  0mm 0.0 W/m2
19:07 65.5 °F /  18.6 °C 43.5 °F /  6.4 °C 29.78in /  1008.4hPa Calm   2.0mph /  3.2km/h 45% 0.00in /  0mm 0.0 W/m2
19:13 65.3 °F /  18.5 °C 44.1 °F /  6.7 °C 29.78in /  1008.4hPa Calm     46% 0.00in /  0mm 0.0 W/m2
19:19 65.1 °F /  18.4 °C 45.0 °F /  7.2 °C 29.78in /  1008.4hPa Calm     48% 0.00in /  0mm 0.0 W/m2
19:26 64.9 °F /  18.3 °C 45.3 °F /  7.4 °C 29.78in /  1008.4hPa Calm   1.0mph /  1.6km/h 49% 0.00in /  0mm 0.0 W/m2
19:32 64.6 °F /  18.1 °C 45.5 °F /  7.5 °C 29.77in /  1008hPa Calm     50% 0.00in /  0mm 0.0 W/m2
19:38 64.4 °F /  18 °C 45.9 °F /  7.7 °C 29.77in /  1008hPa Calm     51% 0.00in /  0mm 0.0 W/m2
19:44 64.0 °F /  17.8 °C 47.1 °F /  8.4 °C 29.78in /  1008.4hPa Calm     54% 0.00in /  0mm 0.0 W/m2
19:50 63.7 °F /  17.6 °C 45.7 °F /  7.6 °C 29.77in /  1008hPa Calm     52% 0.00in /  0mm 0.0 W/m2
19:56 63.3 °F /  17.4 °C 45.0 °F /  7.2 °C 29.77in /  1008hPa Calm     51% 0.00in /  0mm 0.0 W/m2
20:02 63.1 °F /  17.3 °C 45.7 °F /  7.6 °C 29.77in /  1008hPa Calm   1.0mph /  1.6km/h 53% 0.00in /  0mm 0.0 W/m2
20:08 63.0 °F /  17.2 °C 46.0 °F /  7.8 °C 29.77in /  1008hPa Calm   1.0mph /  1.6km/h 54% 0.00in /  0mm 0.0 W/m2
20:15 62.8 °F /  17.1 °C 45.9 °F /  7.7 °C 29.77in /  1008hPa Calm     54% 0.00in /  0mm 0.0 W/m2
20:21 62.4 °F /  16.9 °C 45.5 °F /  7.5 °C 29.76in /  1007.7hPa Calm     54% 0.00in /  0mm 0.0 W/m2
20:27 62.2 °F /  16.8 °C 48.2 °F /  9 °C 29.77in /  1008hPa Calm     60% 0.00in /  0mm 0.0 W/m2
20:33 62.1 °F /  16.7 °C 48.0 °F /  8.9 °C 29.77in /  1008hPa Calm     60% 0.00in /  0mm 0.0 W/m2
20:39 61.9 °F /  16.6 °C 47.8 °F /  8.8 °C 29.77in /  1008hPa Calm     60% 0.00in /  0mm 0.0 W/m2
20:45 61.5 °F /  16.4 °C 45.7 °F /  7.6 °C 29.77in /  1008hPa Calm     56% 0.00in /  0mm 0.0 W/m2
20:51 61.5 °F /  16.4 °C 47.1 °F /  8.4 °C 29.77in /  1008hPa Calm     59% 0.00in /  0mm 0.0 W/m2
20:57 61.5 °F /  16.4 °C 46.6 °F /  8.1 °C 29.77in /  1008hPa Calm   1.0mph /  1.6km/h 58% 0.00in /  0mm 0.0 W/m2
21:03 61.5 °F /  16.4 °C 45.7 °F /  7.6 °C 29.76in /  1007.7hPa Calm     56% 0.00in /  0mm 0.0 W/m2
21:10 61.5 °F /  16.4 °C 45.7 °F /  7.6 °C 29.76in /  1007.7hPa Calm     56% 0.00in /  0mm 0.0 W/m2
21:16 61.5 °F /  16.4 °C 46.2 °F /  7.9 °C 29.76in /  1007.7hPa Calm     57% 0.00in /  0mm 0.0 W/m2
21:22 61.5 °F /  16.4 °C 46.6 °F /  8.1 °C 29.76in /  1007.7hPa Calm     58% 0.00in /  0mm 0.0 W/m2
21:28 61.3 °F /  16.3 °C 47.3 °F /  8.5 °C 29.76in /  1007.7hPa Calm     60% 0.00in /  0mm 0.0 W/m2
21:34 61.3 °F /  16.3 °C 46.4 °F /  8 °C 29.76in /  1007.7hPa South 2.9mph /  4.7km/h 3.0mph /  4.8km/h 58% 0.00in /  0mm 0.0 W/m2
21:40 61.3 °F /  16.3 °C 47.8 °F /  8.8 °C 29.76in /  1007.7hPa Calm     61% 0.00in /  0mm 0.0 W/m2
21:46 61.2 °F /  16.2 °C 46.8 °F /  8.2 °C 29.75in /  1007.3hPa East 4.0mph /  6.4km/h 4.0mph /  6.4km/h 59% 0.00in /  0mm 0.0 W/m2
21:52 61.2 °F /  16.2 °C 42.4 °F /  5.8 °C 29.75in /  1007.3hPa Calm   1.0mph /  1.6km/h 50% 0.00in /  0mm 0.0 W/m2
21:58 61.3 °F /  16.3 °C 40.5 °F /  4.7 °C 29.75in /  1007.3hPa Calm   2.0mph /  3.2km/h 46% 0.00in /  0mm 0.0 W/m2
22:04 61.9 °F /  16.6 °C 40.8 °F /  4.9 °C 29.76in /  1007.7hPa Calm   2.0mph /  3.2km/h 46% 0.00in /  0mm 0.0 W/m2
22:10 62.1 °F /  16.7 °C 40.5 °F /  4.7 °C 29.76in /  1007.7hPa South 0.9mph /  1.4km/h 2.0mph /  3.2km/h 45% 0.00in /  0mm 0.0 W/m2
22:16 62.4 °F /  16.9 °C 39.0 °F /  3.9 °C 29.75in /  1007.3hPa Calm   1.0mph /  1.6km/h 42% 0.00in /  0mm 0.0 W/m2
22:22 63.0 °F /  17.2 °C 37.6 °F /  3.1 °C 29.75in /  1007.3hPa Calm   5.0mph /  8km/h 39% 0.00in /  0mm 0.0 W/m2
22:28 63.7 °F /  17.6 °C 36.9 °F /  2.7 °C 29.76in /  1007.7hPa SSE 0.9mph /  1.4km/h 6.0mph /  9.7km/h 37% 0.00in /  0mm 0.0 W/m2
22:34 64.0 °F /  17.8 °C 37.2 °F /  2.9 °C 29.76in /  1007.7hPa Calm   4.0mph /  6.4km/h 37% 0.00in /  0mm 0.0 W/m2
22:40 64.4 °F /  18 °C 38.3 °F /  3.5 °C 29.76in /  1007.7hPa Calm   5.0mph /  8km/h 38% 0.00in /  0mm 0.0 W/m2
22:46 64.6 °F /  18.1 °C 37.8 °F /  3.2 °C 29.77in /  1008hPa Calm   2.0mph /  3.2km/h 37% 0.00in /  0mm 0.0 W/m2
22:54 64.4 °F /  18 °C 38.3 °F /  3.5 °C 29.77in /  1008hPa Calm   1.0mph /  1.6km/h 38% 0.00in /  0mm 0.0 W/m2
23:00 64.2 °F /  17.9 °C 37.4 °F /  3 °C 29.77in /  1008hPa East 2.9mph /  4.7km/h 4.0mph /  6.4km/h 37% 0.00in /  0mm 0.0 W/m2
23:06 64.0 °F /  17.8 °C 37.9 °F /  3.3 °C 29.77in /  1008hPa SE 2.9mph /  4.7km/h 3.0mph /  4.8km/h 38% 0.00in /  0mm 0.0 W/m2
23:12 63.9 °F /  17.7 °C 37.0 °F /  2.8 °C 29.77in /  1008hPa ESE 0.9mph /  1.4km/h 6.0mph /  9.7km/h 37% 0.00in /  0mm 0.0 W/m2
23:18 63.7 °F /  17.6 °C 36.9 °F /  2.7 °C 29.77in /  1008hPa SE 0.9mph /  1.4km/h 3.0mph /  4.8km/h 37% 0.00in /  0mm 0.0 W/m2
23:24 63.5 °F /  17.5 °C 37.4 °F /  3 °C 29.77in /  1008hPa SSE 0.9mph /  1.4km/h 3.0mph /  4.8km/h 38% 0.00in /  0mm 0.0 W/m2
23:30 63.7 °F /  17.6 °C 36.1 °F /  2.3 °C 29.77in /  1008hPa SSE 0.9mph /  1.4km/h 5.0mph /  8km/h 36% 0.00in /  0mm 0.0 W/m2
23:36 63.9 °F /  17.7 °C 37.0 °F /  2.8 °C 29.78in /  1008.4hPa Calm   1.0mph /  1.6km/h 37% 0.00in /  0mm 0.0 W/m2
23:43 63.7 °F /  17.6 °C 36.9 °F /  2.7 °C 29.78in /  1008.4hPa Calm   2.0mph /  3.2km/h 37% 0.00in /  0mm 0.0 W/m2
23:49 63.5 °F /  17.5 °C 36.7 °F /  2.6 °C 29.78in /  1008.4hPa Calm   2.0mph /  3.2km/h 37% 0.00in /  0mm 0.0 W/m2
23:55 63.3 °F /  17.4 °C 37.2 °F /  2.9 °C 29.78in /  1008.4hPa South 2.9mph /  4.7km/h 3.0mph /  4.8km/h 38% 0.00in /  0mm 0.0 W/m2
Olympia, Windhoek, Namibia
Compliments of Weather Underground - 3 mb